Time;durP1;ratioP1;P1;durP2;ratioP2;P2;SDS_P1;SDS_P2;PMS_P1;PMS_P2;Temp;Humidity;BMP_temperature;BMP_pressure;BME280_temperature;BME280_humidity;BME280_pressure;Samples;Min_cycle;Max_cycle;Signal;HPM_P1;HPM_P2
2022/02/12 00:01:53;;;;;;;18.40;5.07;;;;;;;-142.75;100.00;80111.19;5053048;28;20021;-67
2022/02/12 00:04:18;;;;;;;9.13;4.67;;;;;;;-142.75;100.00;80109.22;5051605;28;20714;-67
2022/02/12 00:06:43;;;;;;;13.57;5.28;;;;;;;-142.75;100.00;80101.31;5052920;28;20290;-67
2022/02/12 00:09:09;;;;;;;15.07;5.27;;;;;;;-142.75;100.00;80101.31;5052673;28;20033;-66
2022/02/12 00:11:34;;;;;;;15.17;5.73;;;;;;;-142.75;100.00;80103.28;5052687;28;20356;-67
2022/02/12 00:13:59;;;;;;;21.13;6.57;;;;;;;-142.75;100.00;80119.06;5052695;28;20032;-67
2022/02/12 00:16:24;;;;;;;14.45;5.15;;;;;;;-142.75;100.00;80126.94;5052705;28;20044;-67
2022/02/12 00:18:50;;;;;;;12.40;5.47;;;;;;;-142.75;100.00;80138.75;5052473;28;20021;-67
2022/02/12 00:21:15;;;;;;;16.00;6.27;;;;;;;-142.75;100.00;80134.81;5052584;28;20756;-67
2022/02/12 00:23:40;;;;;;;19.42;6.10;;;;;;;-142.75;100.00;80123.00;5051355;28;20371;-67
2022/02/12 00:26:06;;;;;;;15.70;5.97;;;;;;;-142.75;100.00;80130.88;5052655;28;21236;-67
2022/02/12 00:28:31;;;;;;;23.80;6.63;;;;;;;-142.75;100.00;80136.78;5052094;28;20043;-67
2022/02/12 00:30:56;;;;;;;19.17;6.57;;;;;;;-142.75;100.00;80134.81;5057982;28;20339;-67
2022/02/12 00:33:21;;;;;;;17.13;6.03;;;;;;;-142.75;100.00;80115.13;5072549;28;20028;-67
2022/02/12 00:35:47;;;;;;;20.43;6.47;;;;;;;-142.75;100.00;80097.38;5072665;28;20036;-67
2022/02/12 00:38:12;;;;;;;16.23;6.38;;;;;;;-142.75;100.00;80091.47;5070859;28;20275;-67
2022/02/12 00:40:37;;;;;;;17.27;5.75;;;;;;;-142.75;100.00;80099.34;5072192;28;20470;-67
2022/02/12 00:43:03;;;;;;;16.20;6.67;;;;;;;-142.75;100.00;80087.53;5072412;28;20025;-67
2022/02/12 00:45:29;;;;;;;18.17;6.75;;;;;;;-142.75;100.00;80085.56;5071031;28;20279;-67
2022/02/12 00:47:54;;;;;;;14.70;5.97;;;;;;;-142.75;100.00;80087.53;5072083;28;20543;-67
2022/02/12 00:50:19;;;;;;;17.65;7.63;;;;;;;-142.75;100.00;80095.41;5072209;28;20019;-67
2022/02/12 00:52:45;;;;;;;20.05;7.28;;;;;;;-142.75;100.00;80107.22;5072094;28;20029;-67
2022/02/12 00:55:10;;;;;;;15.67;6.73;;;;;;;-142.75;100.00;80119.06;5072100;28;20057;-68
2022/02/12 00:57:35;;;;;;;19.77;6.97;;;;;;;-142.75;100.00;80126.94;5063181;28;20278;-67
2022/02/12 01:00:01;;;;;;;15.85;6.97;;;;;;;-142.75;100.00;80130.88;5071933;28;20294;-67
2022/02/12 01:02:27;;;;;;;21.45;7.13;;;;;;;-142.75;100.00;80138.75;5072454;28;20036;-67
2022/02/12 01:04:53;;;;;;;21.33;6.22;;;;;;;-142.75;100.00;80134.81;5072260;28;20403;-67
2022/02/12 01:07:19;;;;;;;19.38;6.47;;;;;;;-142.75;100.00;80136.78;5072428;28;20028;-67
2022/02/12 01:09:44;;;;;;;11.32;5.80;;;;;;;-142.75;100.00;80132.84;5071688;28;20025;-67
2022/02/12 01:12:09;;;;;;;16.88;8.15;;;;;;;-142.75;100.00;80130.88;5070763;28;20039;-68
2022/02/12 01:14:35;;;;;;;9.98;4.93;;;;;;;-142.75;100.00;80132.84;5070238;28;20070;-67
2022/02/12 01:17:00;;;;;;;21.33;5.65;;;;;;;-142.75;100.00;80130.88;5071572;28;20024;-68
2022/02/12 01:19:25;;;;;;;15.95;5.68;;;;;;;-142.75;100.00;80134.81;5071176;28;20056;-67
2022/02/12 01:21:51;;;;;;;14.40;5.05;;;;;;;-142.75;100.00;80115.13;5071418;28;20035;-67
2022/02/12 01:24:16;;;;;;;16.98;5.20;;;;;;;-142.75;100.00;80105.25;5071327;28;20081;-67
2022/02/12 01:26:41;;;;;;;24.43;6.10;;;;;;;-142.75;100.00;80099.34;5071391;28;20023;-67
2022/02/12 01:29:07;;;;;;;18.03;5.13;;;;;;;-142.75;100.00;80095.41;5070900;28;20745;-68
2022/02/12 01:31:33;;;;;;;16.00;4.85;;;;;;;-142.75;100.00;80081.63;5071285;28;20024;-67
2022/02/12 01:33:58;;;;;;;12.45;4.93;;;;;;;-142.75;100.00;80069.81;5071067;28;20052;-67
2022/02/12 01:36:25;;;;;;;16.50;5.22;;;;;;;-142.75;100.00;80059.94;5071294;28;20078;-67
2022/02/12 01:38:50;;;;;;;13.10;5.03;;;;;;;-142.75;100.00;80063.88;5069502;28;20016;-68
2022/02/12 01:41:15;;;;;;;12.60;5.47;;;;;;;-142.75;100.00;80065.84;5071234;28;20491;-67
2022/02/12 01:43:41;;;;;;;15.35;4.78;;;;;;;-142.75;100.00;80075.72;5070938;28;20027;-67
2022/02/12 01:46:06;;;;;;;16.38;5.28;;;;;;;-142.75;100.00;80075.72;5071023;28;20016;-68
2022/02/12 01:48:32;;;;;;;16.70;5.70;;;;;;;-142.75;100.00;80075.72;5070837;28;20028;-67
2022/02/12 01:50:57;;;;;;;15.98;4.68;;;;;;;-142.75;100.00;80067.84;5071091;28;20451;-68
2022/02/12 01:53:25;;;;;;;18.10;5.33;;;;;;;-142.75;100.00;80071.78;5070807;28;20450;-68
2022/02/12 01:55:51;;;;;;;11.00;5.13;;;;;;;-142.75;100.00;80071.78;5070930;28;20687;-68
2022/02/12 01:58:16;;;;;;;14.00;4.68;;;;;;;-142.75;100.00;80063.88;5070637;28;20032;-69
2022/02/12 02:00:42;;;;;;;15.05;4.80;;;;;;;-142.75;100.00;80059.94;5070797;28;20052;-69
2022/02/12 02:03:07;;;;;;;11.88;4.40;;;;;;;-142.75;100.00;80063.88;5070847;28;20025;-66
2022/02/12 02:05:32;;;;;;;16.77;4.45;;;;;;;-142.75;100.00;80065.84;5070838;28;20024;-68
2022/02/12 02:07:58;;;;;;;15.52;4.65;;;;;;;-142.75;100.00;80067.84;5070534;28;20025;-69
2022/02/12 02:10:24;;;;;;;13.40;4.10;;;;;;;-142.75;100.00;80063.88;5070705;28;20508;-69
2022/02/12 02:12:50;;;;;;;18.67;4.10;;;;;;;-142.75;100.00;80059.94;5070577;28;20024;-69
2022/02/12 02:15:15;;;;;;;13.25;3.60;;;;;;;-142.75;100.00;80054.03;5070833;28;20066;-68
2022/02/12 02:17:40;;;;;;;13.05;3.78;;;;;;;-142.75;100.00;80048.13;5070745;28;20398;-68
2022/02/12 02:20:07;;;;;;;14.75;4.90;;;;;;;-142.75;100.00;80048.13;5069073;28;20406;-68
2022/02/12 02:22:47;;;;;;;14.33;4.13;;;;;;;-142.75;100.00;80036.31;5070194;28;20020;-68
2022/02/12 02:25:12;;;;;;;8.30;3.30;;;;;;;-142.75;100.00;80028.44;5075947;28;20028;-68
2022/02/12 02:27:38;;;;;;;9.38;3.90;;;;;;;-142.75;100.00;80032.38;5077222;28;21453;-68
2022/02/12 02:30:04;;;;;;;13.32;3.38;;;;;;;-142.75;100.00;80044.19;5075674;28;20012;-68
2022/02/12 02:32:29;;;;;;;20.00;4.15;;;;;;;-142.75;100.00;80048.13;5077237;28;20389;-68
2022/02/12 02:34:55;;;;;;;16.05;3.47;;;;;;;-142.75;100.00;80044.19;5077179;28;20024;-68
2022/02/12 02:37:22;;;;;;;12.30;3.78;;;;;;;-142.75;100.00;80040.25;5077234;28;20028;-68
2022/02/12 02:39:49;;;;;;;19.97;4.27;;;;;;;-142.75;100.00;80032.38;5076674;28;20016;-69
2022/02/12 02:42:15;;;;;;;10.27;3.40;;;;;;;-142.75;100.00;80024.50;5075806;28;20029;-68
2022/02/12 02:44:40;;;;;;;12.52;3.83;;;;;;;-142.75;100.00;80014.63;5076986;28;20020;-68
2022/02/12 02:49:51;;;;;;;11.70;3.40;;;;;;;-142.75;100.00;80000.84;5077035;28;20036;-68
2022/02/12 02:57:45;;;;;;;20.20;3.33;;;;;;;-142.75;100.00;79989.03;5077194;28;20039;-68
2022/02/12 03:00:11;;;;;;;11.07;3.22;;;;;;;-142.75;100.00;79987.06;5076702;28;20028;-68
2022/02/12 03:02:37;;;;;;;13.40;3.40;;;;;;;-142.75;100.00;79971.28;5077032;28;20474;-68
2022/02/12 03:05:03;;;;;;;10.40;3.70;;;;;;;-142.75;100.00;79963.41;5076910;28;20028;-68
2022/02/12 03:07:28;;;;;;;17.42;3.83;;;;;;;-142.75;100.00;79945.69;5076837;28;20039;-68
2022/02/12 03:09:53;;;;;;;13.43;3.60;;;;;;;-142.75;100.00;79925.97;5076656;28;20415;-68
2022/02/12 03:12:19;;;;;;;13.88;3.65;;;;;;;-142.75;100.00;79914.16;5075455;28;20024;-68
2022/02/12 03:14:44;;;;;;;15.73;3.37;;;;;;;-142.75;100.00;79910.22;5076844;28;20034;-68
2022/02/12 03:17:09;;;;;;;14.87;3.83;;;;;;;-142.75;100.00;79906.28;5076851;28;20297;-68
2022/02/12 03:19:34;;;;;;;17.67;3.15;;;;;;;-142.75;100.00;79896.44;5076221;28;20077;-68
2022/02/12 03:22:00;;;;;;;12.57;3.55;;;;;;;-142.75;100.00;79894.47;5076869;28;20031;-68
2022/02/12 03:24:25;;;;;;;23.80;5.07;;;;;;;-142.75;100.00;79894.47;5076795;28;20029;-69
2022/02/12 03:26:50;;;;;;;7.07;3.13;;;;;;;-142.75;100.00;79886.56;5076804;28;20267;-68
2022/02/12 03:29:15;;;;;;;11.60;3.75;;;;;;;-142.75;100.00;79886.56;5075198;28;20020;-68
2022/02/12 03:31:41;;;;;;;13.77;3.77;;;;;;;-142.75;100.00;79866.88;5075966;28;20085;-68
2022/02/12 03:34:06;;;;;;;15.73;4.00;;;;;;;-142.75;100.00;79859.00;5076092;28;20358;-68
2022/02/12 03:36:31;;;;;;;11.87;3.83;;;;;;;-142.75;100.00;79864.91;5073014;28;20283;-69
2022/02/12 03:38:57;;;;;;;14.60;4.50;;;;;;;-142.75;100.00;79855.06;5073290;28;20055;-68
2022/02/12 03:41:22;;;;;;;17.08;4.80;;;;;;;-142.75;100.00;79874.75;5073451;28;20016;-68
2022/02/12 03:43:47;;;;;;;14.85;3.50;;;;;;;-142.75;100.00;79870.81;5073345;28;20082;-68
2022/02/12 03:46:13;;;;;;;20.95;4.40;;;;;;;-142.75;100.00;79880.66;5073303;28;20512;-68
2022/02/12 03:48:38;;;;;;;13.32;3.47;;;;;;;-142.75;100.00;79878.69;5072992;28;20028;-68
2022/02/12 03:51:03;;;;;;;9.43;3.67;;;;;;;-142.75;100.00;79886.56;5071841;28;20021;-68
2022/02/12 03:53:29;;;;;;;12.70;4.82;;;;;;;-142.75;100.00;79878.69;5086633;22;20318;-67
2022/02/12 03:55:54;;;;;;;16.52;3.92;;;;;;;-142.75;100.00;79884.59;5051561;28;20479;-67
2022/02/12 03:58:20;;;;;;;9.88;4.45;;;;;;;-142.75;100.00;79888.53;5071948;28;20082;-66
2022/02/12 04:00:47;;;;;;;21.10;4.22;;;;;;;-142.75;100.00;79892.50;5070462;28;20070;-67
2022/02/12 04:03:13;;;;;;;20.30;4.40;;;;;;;-142.75;100.00;79878.69;5065965;28;20445;-67
2022/02/12 04:05:45;;;;;;;15.88;5.90;;;;;;;-142.75;100.00;79878.69;5072991;28;20052;-67
2022/02/12 04:08:13;;;;;;;29.03;5.40;;;;;;;-142.75;100.00;79884.59;5060466;28;20503;-67
2022/02/12 04:10:39;;;;;;;21.10;7.03;;;;;;;-142.75;100.00;79884.59;5050471;28;20044;-68
2022/02/12 04:13:05;;;;;;;22.97;7.27;;;;;;;-142.75;100.00;79874.75;5052687;28;20033;-68
2022/02/12 04:15:30;;;;;;;26.92;7.18;;;;;;;-142.75;100.00;79860.97;5052854;28;20032;-66
2022/02/12 04:17:56;;;;;;;16.00;5.88;;;;;;;-142.75;100.00;79857.03;5051458;28;20028;-67
2022/02/12 04:20:23;;;;;;;16.45;6.68;;;;;;;-142.75;100.00;79866.88;5071294;28;20107;-67
2022/02/12 04:22:49;;;;;;;18.03;7.20;;;;;;;-142.75;100.00;79868.84;5071279;28;20169;-69
2022/02/12 04:25:17;;;;;;;20.55;7.13;;;;;;;-142.75;100.00;79847.19;5064986;28;20025;-67
2022/02/12 04:27:43;;;;;;;15.97;7.07;;;;;;;-142.75;100.00;79845.22;5059789;28;20044;-67
2022/02/12 04:30:11;;;;;;;24.23;5.97;;;;;;;-142.75;100.00;79835.34;5063050;28;20385;-67
2022/02/12 04:32:37;;;;;;;22.63;6.47;;;;;;;-142.75;100.00;79827.47;5052322;28;20040;-69
2022/02/12 04:35:03;;;;;;;;;;;;;;;-142.75;100.00;79819.59;5052786;28;20115;-68
2022/02/12 04:37:30;;;;;;;15.00;4.93;;;;;;;-142.75;100.00;79815.66;5057104;28;20453;-66
2022/02/12 04:39:55;;;;;;;20.77;7.13;;;;;;;-142.75;100.00;79811.72;5070648;28;20477;-67
2022/02/12 04:42:21;;;;;;;20.00;6.97;;;;;;;-142.75;100.00;79803.84;5072199;28;20086;-67
2022/02/12 04:44:51;;;;;;;18.58;6.57;;;;;;;-142.75;100.00;79813.69;5061575;28;20028;-67
2022/02/12 04:47:18;;;;;;;16.90;6.20;;;;;;;-142.75;100.00;79799.91;5050871;28;20031;-67
2022/02/12 04:49:44;;;;;;;20.83;6.13;;;;;;;-142.75;100.00;79807.78;5051896;28;20029;-69
2022/02/12 04:52:12;;;;;;;22.20;5.85;;;;;;;-142.75;100.00;79792.00;5064543;28;20046;-69
2022/02/12 04:54:38;;;;;;;17.67;5.77;;;;;;;-142.75;100.00;79795.94;5049518;28;20062;-68
2022/02/12 04:57:04;;;;;;;22.58;7.22;;;;;;;-142.75;100.00;79799.91;5052051;28;20041;-69
2022/02/12 04:59:30;;;;;;;15.60;6.17;;;;;;;-142.75;100.00;79803.84;5051498;28;20155;-67
2022/02/12 05:01:55;;;;;;;19.90;6.18;;;;;;;-142.75;100.00;79803.84;5054800;28;20499;-67
2022/02/12 05:04:23;;;;;;;21.40;6.30;;;;;;;-142.75;100.00;79829.44;5051920;28;20025;-67
2022/02/12 05:06:48;;;;;;;15.33;5.23;;;;;;;-142.75;100.00;79835.34;5051835;28;20354;-67
2022/02/12 05:09:14;;;;;;;17.00;6.13;;;;;;;-142.75;100.00;79857.03;5062052;28;20024;-67
2022/02/12 05:11:41;;;;;;;24.25;5.72;;;;;;;-142.75;100.00;79859.00;5070476;28;20036;-67
2022/02/12 05:14:07;;;;;;;15.77;5.43;;;;;;;-142.75;100.00;79866.88;5051111;28;20108;-68
2022/02/12 05:16:32;;;;;;;;;;;;;;;-142.75;100.00;79876.72;5052067;28;20032;-66
2022/02/12 05:18:58;;;;;;;17.70;5.77;;;;;;;-142.75;100.00;79874.75;5051220;28;19916;-67
2022/02/12 05:21:23;;;;;;;23.20;6.45;;;;;;;-142.75;100.00;79870.81;5050479;28;20508;-67
2022/02/12 05:23:48;;;;;;;17.25;6.43;;;;;;;-142.75;100.00;79868.84;5051395;28;20025;-67
2022/02/12 05:26:16;;;;;;;20.65;6.28;;;;;;;-142.75;100.00;79862.94;5067925;28;20126;-69
2022/02/12 05:28:41;;;;;;;23.67;7.40;;;;;;;-142.75;100.00;79847.19;5059354;28;20046;-66
2022/02/12 05:31:07;;;;;;;22.77;7.63;;;;;;;-142.75;100.00;79847.19;5050138;28;20533;-67
2022/02/12 05:33:37;;;;;;;17.87;7.20;;;;;;;-142.75;100.00;79843.22;5055816;28;20432;-66
2022/02/12 05:36:12;;;;;;;20.37;6.83;;;;;;;-142.75;100.00;79843.22;5058431;28;20259;-67
2022/02/12 05:38:39;;;;;;;14.77;6.53;;;;;;;-142.75;100.00;79847.19;5051058;28;20128;-67
2022/02/12 05:41:06;;;;;;;17.37;6.80;;;;;;;-142.75;100.00;79847.19;5049560;28;20021;-67
2022/02/12 05:43:32;;;;;;;19.53;6.77;;;;;;;-142.75;100.00;79839.28;5055053;28;20099;-68
2022/02/12 05:45:58;;;;;;;23.53;7.20;;;;;;;-142.75;100.00;79839.28;5070995;28;20016;-67
2022/02/12 05:48:24;;;;;;;22.13;7.30;;;;;;;-142.75;100.00;79847.19;5059702;28;20055;-67
2022/02/12 05:50:49;;;;;;;18.20;7.00;;;;;;;-142.75;100.00;79857.03;5070942;28;20100;-67
2022/02/12 05:53:14;;;;;;;19.47;6.63;;;;;;;-142.75;100.00;79851.13;5070714;28;20096;-67
2022/02/12 05:55:39;;;;;;;20.15;7.47;;;;;;;-142.75;100.00;79864.91;5071069;28;20764;-67
2022/02/12 05:58:05;;;;;;;19.10;6.82;;;;;;;-142.75;100.00;79868.84;5060953;28;20020;-66
2022/02/12 06:00:30;;;;;;;18.08;6.75;;;;;;;-142.75;100.00;79868.84;5054765;28;20024;-69
2022/02/12 06:02:56;;;;;;;17.23;6.90;;;;;;;-142.75;100.00;79882.63;5051856;28;20104;-67
2022/02/12 06:05:21;;;;;;;18.20;7.55;;;;;;;-142.75;100.00;79874.75;5051006;28;20025;-67
2022/02/12 06:07:47;;;;;;;22.98;6.88;;;;;;;-142.75;100.00;79866.88;5058626;28;20044;-68
2022/02/12 06:10:13;;;;;;;18.92;7.82;;;;;;;-142.75;100.00;79866.88;5054888;28;20031;-67
2022/02/12 06:12:39;;;;;;;18.43;7.03;;;;;;;-142.75;100.00;79870.81;5054254;28;20027;-67
2022/02/12 06:15:05;;;;;;;20.90;7.57;;;;;;;-142.75;100.00;79855.06;5053838;28;20066;-66
2022/02/12 06:17:31;;;;;;;;;;;;;;;-142.75;100.00;79855.06;5054100;28;20043;-67
2022/02/12 06:19:56;;;;;;;17.10;6.90;;;;;;;-142.75;100.00;79864.91;5056574;28;19916;-65
2022/02/12 06:22:24;;;;;;;18.00;7.40;;;;;;;-142.75;100.00;79855.06;5056173;28;20017;-66
2022/02/12 06:24:50;;;;;;;24.30;8.23;;;;;;;-142.75;100.00;79841.25;5057395;28;20079;-66
2022/02/12 06:27:15;;;;;;;20.53;8.20;;;;;;;-142.75;100.00;79833.38;5047341;28;20021;-66
2022/02/12 06:29:40;;;;;;;19.15;8.23;;;;;;;-142.75;100.00;79839.28;5048459;28;20112;-67
2022/02/12 06:32:06;;;;;;;20.03;7.40;;;;;;;-142.75;100.00;79847.19;5049885;28;20041;-67
2022/02/12 06:34:31;;;;;;;18.27;8.18;;;;;;;-142.75;100.00;79831.41;5060133;28;20631;-67
2022/02/12 06:36:56;;;;;;;19.67;7.95;;;;;;;-142.75;100.00;79831.41;5070557;28;20016;-69
2022/02/12 06:39:22;;;;;;;21.52;7.78;;;;;;;-142.75;100.00;79839.28;5054537;28;20108;-65
2022/02/12 06:41:47;;;;;;;20.20;7.35;;;;;;;-142.75;100.00;79851.13;5056853;28;20052;-68
2022/02/12 06:44:12;;;;;;;16.48;7.22;;;;;;;-142.75;100.00;79870.81;5070412;28;20029;-69
2022/02/12 06:46:38;;;;;;;19.10;6.50;;;;;;;-142.75;100.00;79878.69;5069089;28;20521;-66
2022/02/12 06:49:03;;;;;;;20.10;7.53;;;;;;;-142.75;100.00;79866.88;5068865;28;20074;-67
2022/02/12 06:51:28;;;;;;;22.57;8.33;;;;;;;-142.75;100.00;79859.00;5070301;28;20398;-67
2022/02/12 06:53:53;;;;;;;20.43;8.17;;;;;;;-142.75;100.00;79853.09;5068897;28;20350;-65
2022/02/12 06:56:19;;;;;;;20.70;9.30;;;;;;;-142.75;100.00;79851.13;5070160;28;20275;-67
2022/02/12 06:58:44;;;;;;;30.38;8.68;;;;;;;-142.75;100.00;79851.13;5054051;28;20116;-68
2022/02/12 07:01:09;;;;;;;27.25;8.60;;;;;;;-142.75;100.00;79845.22;5053048;28;20779;-65
2022/02/12 07:03:34;;;;;;;21.90;7.73;;;;;;;-142.75;100.00;79837.31;5068813;28;20119;-67
2022/02/12 07:06:00;;;;;;;24.23;8.00;;;;;;;-142.75;100.00;79831.41;5052423;28;20283;-66
2022/02/12 07:08:25;;;;;;;26.05;8.57;;;;;;;-142.75;100.00;79823.53;5049693;28;20295;-67
2022/02/12 07:10:50;;;;;;;32.00;9.45;;;;;;;-142.75;100.00;79823.53;5071909;28;20410;-67
2022/02/12 07:13:16;;;;;;;21.33;8.23;;;;;;;-142.75;100.00;79825.50;5075012;28;20031;-67
2022/02/12 07:15:41;;;;;;;20.48;8.18;;;;;;;-142.75;100.00;79825.50;5074985;28;20020;-67
2022/02/12 07:18:06;;;;;;;23.48;8.15;;;;;;;-142.75;100.00;79819.59;5073459;28;20020;-67
2022/02/12 07:20:32;;;;;;;18.23;8.67;;;;;;;-142.75;100.00;79827.47;5074766;28;20482;-67
2022/02/12 07:22:57;;;;;;;18.98;8.65;;;;;;;-142.75;100.00;79825.50;5074797;28;20278;-67
2022/02/12 07:25:23;;;;;;;22.95;8.88;;;;;;;-142.75;100.00;79811.72;5073406;28;20436;-66
2022/02/12 07:27:55;;;;;;;30.88;9.90;;;;;;;-142.75;100.00;79807.78;5072997;28;20554;-68
2022/02/12 07:30:22;;;;;;;27.70;9.73;;;;;;;-142.75;100.00;79805.81;5074074;28;20020;-66
2022/02/12 07:32:48;;;;;;;28.07;9.00;;;;;;;-142.75;100.00;79788.06;5072745;28;20055;-66
2022/02/12 07:35:14;;;;;;;27.85;9.82;;;;;;;-142.75;100.00;79788.06;5073815;28;20037;-67
2022/02/12 07:37:41;;;;;;;23.48;7.90;;;;;;;-142.75;100.00;79786.09;5073832;28;20055;-67
2022/02/12 07:40:07;;;;;;;23.97;8.73;;;;;;;-142.75;100.00;79772.31;5073163;28;20032;-66
2022/02/12 07:42:33;;;;;;;;;;;;;;;-142.75;100.00;79772.31;5072649;28;20059;-67
2022/02/12 07:44:58;;;;;;;24.57;8.40;;;;;;;-142.75;100.00;79776.25;5073338;28;19948;-67
2022/02/12 07:47:24;;;;;;;24.60;8.57;;;;;;;-142.75;100.00;79774.28;5073273;28;20548;-69
2022/02/12 07:49:50;;;;;;;44.30;12.02;;;;;;;-142.75;100.00;79780.19;5073212;28;20103;-69
2022/02/12 07:52:15;;;;;;;34.35;11.30;;;;;;;-142.75;100.00;79772.31;5073378;28;20395;-67
2022/02/12 07:54:41;;;;;;;26.15;8.38;;;;;;;-142.75;100.00;79766.41;5073050;28;20080;-67
2022/02/12 07:57:06;;;;;;;21.95;8.02;;;;;;;-142.75;100.00;79756.56;5073367;28;20112;-67
2022/02/12 07:59:31;;;;;;;21.85;7.35;;;;;;;-142.75;100.00;79719.13;5072639;28;20398;-67
2022/02/12 08:01:56;;;;;;;24.23;7.80;;;;;;;-142.75;100.00;79693.50;5073156;28;20044;-69
2022/02/12 08:04:22;;;;;;;24.03;7.23;;;;;;;-142.75;100.00;79654.13;5073340;28;20024;-66
2022/02/12 08:09:31;;;;;;;18.80;9.43;;;;;;;-142.75;100.00;79591.06;5072502;28;20372;-67
2022/02/12 08:12:13;;;;;;;15.68;7.65;;;;;;;-142.75;100.00;79567.44;5072925;28;20024;-67
2022/02/12 08:14:39;;;;;;;15.30;7.07;;;;;;;-142.75;100.00;79476.81;5072608;28;20090;-66
2022/02/12 08:17:04;;;;;;;;;;;;;;;-142.75;100.00;79478.78;5073521;28;20028;-68
2022/02/12 08:19:31;;;;;;;20.27;7.37;;;;;;;-142.75;100.00;79490.59;5072566;28;19919;-67
2022/02/12 08:21:56;;;;;;;17.97;7.93;;;;;;;-142.75;100.00;79465.00;5071045;28;20405;-65
2022/02/12 08:24:22;;;;;;;19.52;7.30;;;;;;;-142.75;100.00;79466.97;5071561;28;20025;-66
2022/02/12 08:26:47;;;;;;;21.90;8.30;;;;;;;-142.75;100.00;79468.94;5072668;28;20031;-66
2022/02/12 08:29:12;;;;;;;16.05;6.53;;;;;;;-142.75;100.00;79470.91;5072163;28;20056;-66
2022/02/12 08:31:37;;;;;;;17.70;6.73;;;;;;;-142.75;100.00;79445.28;5072506;28;20017;-67
2022/02/12 08:34:03;;;;;;;19.17;6.77;;;;;;;-142.75;100.00;79405.91;5072440;28;20297;-67
2022/02/12 08:36:28;;;;;;;17.80;7.60;;;;;;;-142.75;100.00;79398.03;5072377;28;20496;-65
2022/02/12 08:38:53;;;;;;;18.20;6.68;;;;;;;-142.75;100.00;79413.78;5048266;28;20032;-67
2022/02/12 08:41:19;;;;;;;22.27;6.87;;;;;;;-142.75;100.00;79348.78;5052557;28;20104;-66
2022/02/12 08:43:44;;;;;;;17.67;6.78;;;;;;;-142.75;100.00;79344.84;5052173;28;20432;-67
2022/02/12 08:46:09;;;;;;;19.00;7.28;;;;;;;-142.75;100.00;79333.00;5052455;28;20059;-66
2022/02/12 08:48:35;;;;;;;17.10;5.93;;;;;;;-142.75;100.00;79295.59;5052117;28;20035;-66
2022/02/12 08:51:00;;;;;;;15.53;5.63;;;;;;;-142.75;100.00;79307.41;5052319;28;20024;-68
2022/02/12 08:53:25;;;;;;;18.02;6.90;;;;;;;-142.75;100.00;79264.06;5051984;28;20271;-65
2022/02/12 08:55:51;;;;;;;16.73;6.23;;;;;;;-142.75;100.00;79279.84;5052295;28;20040;-66
2022/02/12 08:58:16;;;;;;;18.02;6.82;;;;;;;-142.75;100.00;79264.06;5051601;28;20284;-66
2022/02/12 09:00:41;;;;;;;16.60;6.75;;;;;;;-142.75;100.00;79226.66;5051969;28;20475;-67
2022/02/12 09:03:06;;;;;;;19.08;6.20;;;;;;;-142.75;100.00;79228.63;5052131;28;20033;-65
2022/02/12 09:05:32;;;;;;;17.83;6.53;;;;;;;-142.75;100.00;79204.97;5052084;28;20025;-65
2022/02/12 09:07:57;;;;;;;22.90;6.55;;;;;;;-142.75;100.00;79189.22;5051194;28;20390;-67
2022/02/12 09:10:23;;;;;;;16.75;5.60;;;;;;;-142.75;100.00;79171.50;5050727;28;20044;-66
2022/02/12 09:12:48;;;;;;;18.35;5.57;;;;;;;-142.75;100.00;79157.72;5051570;28;20497;-66
2022/02/12 09:15:13;;;;;;;12.38;5.25;;;;;;;-142.75;100.00;79185.28;5051806;28;20028;-66
2022/02/12 09:17:39;;;;;;;15.00;6.15;;;;;;;-142.75;100.00;79128.16;5051873;28;20120;-67
2022/02/12 09:20:04;;;;;;;14.77;4.63;;;;;;;-142.75;100.00;79086.78;5051335;28;20036;-67
2022/02/12 09:22:29;;;;;;;12.05;4.78;;;;;;;-142.75;100.00;79102.56;5050422;28;20107;-65
2022/02/12 09:24:55;;;;;;;14.17;4.63;;;;;;;-142.75;100.00;79074.97;5051573;28;20017;-66
2022/02/12 09:27:20;;;;;;;17.15;5.10;;;;;;;-142.75;100.00;79029.66;5050187;28;20483;-66
2022/02/12 09:29:46;;;;;;;13.52;4.97;;;;;;;-142.75;100.00;79063.16;5051362;28;20505;-67
2022/02/12 09:32:11;;;;;;;17.02;4.57;;;;;;;-142.75;100.00;79055.28;5050701;28;20039;-67
2022/02/12 09:34:37;;;;;;;15.52;5.57;;;;;;;-142.75;100.00;79076.94;5050898;28;20401;-69
2022/02/12 09:37:02;;;;;;;14.23;4.55;;;;;;;-142.75;100.00;79045.44;5051419;28;20544;-67
2022/02/12 09:39:28;;;;;;;17.38;4.72;;;;;;;-142.75;100.00;79055.28;5051399;28;20474;-67
2022/02/12 09:41:55;;;;;;;16.87;4.80;;;;;;;-142.75;100.00;79031.66;5051108;28;20036;-66
2022/02/12 09:44:20;;;;;;;14.07;5.10;;;;;;;-142.75;100.00;79041.50;5051198;28;20278;-67
2022/02/12 09:47:10;;;;;;;11.88;5.50;;;;;;;-142.75;100.00;79000.13;5051267;28;20029;-68
2022/02/12 09:49:41;;;;;;;11.37;4.00;;;;;;;-142.75;100.00;78980.44;5051331;28;20021;-66
2022/02/12 09:52:10;;;;;;;13.70;4.33;;;;;;;-142.75;100.00;78980.44;5052146;28;20052;-67
2022/02/12 09:54:36;;;;;;;12.73;4.40;;;;;;;-142.75;100.00;78988.31;5084494;22;20075;-67
2022/02/12 09:57:01;;;;;;;13.98;4.47;;;;;;;-142.75;100.00;78972.56;5064470;28;20020;-67
2022/02/12 09:59:26;;;;;;;20.83;4.63;;;;;;;-142.75;100.00;78982.41;5071260;28;20023;-67
2022/02/12 10:01:52;;;;;;;19.63;4.50;;;;;;;-142.75;100.00;78960.72;5071721;28;20442;-67
2022/02/12 10:04:18;;;;;;;13.73;4.78;;;;;;;-142.75;100.00;78968.63;5062452;28;20033;-66
2022/02/12 10:06:45;;;;;;;;;;;;;;;-142.75;100.00;78968.63;5050382;28;20075;-67
2022/02/12 10:09:10;;;;;;;9.80;4.47;;;;;;;-142.75;100.00;78976.50;5049662;28;19908;-68
2022/02/12 10:11:47;;;;;;;11.82;4.63;;;;;;;-142.75;100.00;78897.72;5050533;28;20028;-67
2022/02/12 10:14:15;;;;;;;15.77;4.35;;;;;;;-142.75;100.00;78879.97;5050500;28;20478;-67
2022/02/12 10:16:57;;;;;;;17.03;4.53;;;;;;;-142.75;100.00;78866.19;5051295;28;20367;-67
2022/02/12 10:19:31;;;;;;;9.43;4.23;;;;;;;-142.75;100.00;78866.19;5051412;28;20070;-67
2022/02/12 10:22:08;;;;;;;17.27;4.23;;;;;;;-142.75;100.00;78881.94;5067092;28;20478;-67
2022/02/12 10:24:47;;;;;;;12.23;4.23;;;;;;;-142.75;100.00;78885.88;5067222;28;20142;-67
2022/02/12 10:27:13;;;;;;;13.30;4.23;;;;;;;-142.75;100.00;78856.34;5051614;28;20079;-67
2022/02/12 10:29:38;;;;;;;12.30;4.10;;;;;;;-142.75;100.00;78832.72;5051751;28;20017;-68
2022/02/12 10:32:04;;;;;;;8.40;4.00;;;;;;;-142.75;100.00;78779.53;5051755;28;20024;-68
2022/02/12 10:34:42;;;;;;;14.75;3.80;;;;;;;-142.75;100.00;78826.81;5051491;28;20021;-68
2022/02/12 10:37:08;;;;;;;13.83;3.73;;;;;;;-142.75;100.00;78830.75;5067096;28;20021;-67
2022/02/12 10:39:47;;;;;;;9.68;3.83;;;;;;;-142.75;100.00;78805.13;5051306;28;20032;-68
2022/02/12 10:42:13;;;;;;;9.10;3.53;;;;;;;-142.75;100.00;78795.28;5066896;28;20094;-68
2022/02/12 10:44:39;;;;;;;12.27;4.05;;;;;;;-142.75;100.00;78822.88;5053613;28;20024;-68
2022/02/12 10:47:04;;;;;;;;;;;;;;;-142.75;100.00;78809.06;5055906;28;20389;-68
2022/02/12 10:49:30;;;;;;;10.57;3.53;;;;;;;-142.75;100.00;78763.78;5055152;28;20003;-68
2022/02/12 10:51:55;;;;;;;10.60;3.47;;;;;;;-142.75;100.00;78700.75;5055445;28;20097;-68
2022/02/12 10:54:20;;;;;;;8.75;2.95;;;;;;;-142.75;100.00;78720.44;5070778;28;20029;-68
2022/02/12 10:56:51;;;;;;;7.40;2.85;;;;;;;-142.75;100.00;78688.94;5071050;28;20021;-68
2022/02/12 10:59:21;;;;;;;10.73;2.97;;;;;;;-142.75;100.00;78661.34;5070527;28;20062;-68
2022/02/12 11:01:48;;;;;;;9.17;3.00;;;;;;;-142.75;100.00;78637.72;5055662;28;20582;-68
2022/02/12 11:04:15;;;;;;;11.37;3.17;;;;;;;-142.75;100.00;78594.41;5070649;28;20048;-68
2022/02/12 11:06:44;;;;;;;10.63;3.33;;;;;;;-142.75;100.00;78555.00;5055531;28;20016;-68
2022/02/12 11:09:10;;;;;;;8.37;2.50;;;;;;;-142.75;100.00;78499.88;5055360;28;20064;-69
2022/02/12 11:11:35;;;;;;;9.40;2.92;;;;;;;-142.75;100.00;78484.09;5055287;28;20064;-68